createdAt,value
2019-02-21T00:00:29.295Z,9.73
2019-02-21T00:01:28.691Z,9.69
2019-02-21T00:02:28.714Z,9.76
2019-02-21T00:03:29.245Z,9.74
2019-02-21T00:04:29.264Z,9.73
2019-02-21T00:05:29.042Z,9.76
2019-02-21T00:06:29.051Z,9.65
2019-02-21T00:07:28.800Z,9.69
2019-02-21T00:08:28.832Z,9.73
2019-02-21T00:09:29.095Z,9.76
2019-02-21T00:10:29.118Z,9.77
2019-02-21T00:11:29.131Z,9.76
2019-02-21T00:12:28.894Z,9.77
2019-02-21T00:13:29.426Z,9.72
2019-02-21T00:14:29.188Z,9.83
2019-02-21T00:15:29.218Z,9.77
2019-02-21T00:16:29.221Z,9.79
2019-02-21T00:17:28.980Z,9.82
2019-02-21T00:18:29.010Z,9.76
2019-02-21T00:19:29.025Z,9.74
2019-02-21T00:20:29.041Z,9.8
2019-02-21T00:21:29.315Z,9.84
2019-02-21T00:22:29.075Z,9.86
2019-02-21T00:23:29.096Z,9.8
2019-02-21T00:24:29.151Z,9.76
2019-02-21T00:25:29.389Z,9.79
2019-02-21T00:26:29.413Z,9.76
2019-02-21T00:27:29.710Z,9.73
2019-02-21T00:28:29.192Z,9.79
2019-02-21T00:29:29.472Z,9.76
2019-02-21T00:30:40.020Z,9.76
2019-02-21T00:31:29.505Z,9.87
2019-02-21T00:32:29.269Z,9.91
2019-02-21T00:33:29.793Z,9.86
2019-02-21T00:34:29.299Z,9.86
2019-02-21T00:35:29.580Z,9.87
2019-02-21T00:36:29.336Z,9.91
2019-02-21T00:37:29.874Z,9.84
2019-02-21T00:38:29.374Z,9.91
2019-02-21T00:39:29.387Z,9.91
2019-02-21T00:40:29.682Z,9.86
2019-02-21T00:41:29.685Z,9.92
2019-02-21T00:42:29.704Z,9.84
2019-02-21T00:43:29.463Z,9.92
2019-02-21T00:44:29.479Z,9.92
2019-02-21T00:45:29.503Z,9.87
2019-02-21T00:46:29.784Z,9.86
2019-02-21T00:47:29.806Z,9.87
2019-02-21T00:48:29.812Z,9.83
2019-02-21T00:49:29.832Z,9.94
2019-02-21T00:50:29.852Z,9.82
2019-02-21T00:51:29.885Z,9.87
2019-02-21T00:52:31.432Z,9.91
2019-02-21T00:53:29.908Z,9.86
2019-02-21T00:54:29.935Z,10.01
2019-02-21T00:55:32.774Z,9.84
2019-02-21T00:56:29.959Z,9.84
2019-02-21T00:57:29.980Z,9.91
2019-02-21T00:58:29.998Z,9.83
2019-02-21T00:59:30.275Z,9.89
2019-02-21T01:00:30.296Z,9.87
2019-02-21T01:01:30.111Z,9.87
2019-02-21T01:02:30.089Z,9.87
2019-02-21T01:03:29.841Z,9.89
2019-02-21T01:04:30.111Z,9.95
2019-02-21T01:05:29.939Z,9.84
2019-02-21T01:06:30.147Z,9.92
2019-02-21T01:07:29.908Z,9.84
2019-02-21T01:08:30.190Z,9.82
2019-02-21T01:09:30.000Z,9.89
2019-02-21T01:10:30.217Z,9.92
2019-02-21T01:11:29.978Z,9.91
2019-02-21T01:12:30.252Z,9.89
2019-02-21T01:13:30.542Z,9.92
2019-02-21T01:14:30.299Z,9.84
2019-02-21T01:15:30.317Z,9.84
2019-02-21T01:16:30.332Z,9.87
2019-02-21T01:17:30.089Z,9.86
2019-02-21T01:18:30.380Z,9.92
2019-02-21T01:19:30.640Z,9.92
2019-02-21T01:20:30.144Z,9.92
2019-02-21T01:21:30.166Z,9.86
2019-02-21T01:22:30.705Z,9.87
2019-02-21T01:23:30.210Z,9.87
2019-02-21T01:24:30.525Z,9.87
2019-02-21T01:25:30.498Z,9.91
2019-02-21T01:26:30.558Z,9.84
2019-02-21T01:27:30.797Z,9.91
2019-02-21T01:28:30.811Z,9.91
2019-02-21T01:29:30.575Z,9.87
2019-02-21T01:30:30.847Z,9.79
2019-02-21T01:31:30.352Z,9.83
2019-02-21T01:32:30.882Z,9.87
2019-02-21T01:33:30.758Z,9.74
2019-02-21T01:34:30.412Z,9.79
2019-02-21T01:35:30.683Z,9.84
2019-02-21T01:36:30.702Z,9.89
2019-02-21T01:37:30.458Z,9.79
2019-02-21T01:38:30.485Z,9.74
2019-02-21T01:39:30.752Z,9.76
2019-02-21T01:40:30.771Z,9.83
2019-02-21T01:41:30.844Z,9.76
2019-02-21T01:42:31.070Z,9.8
2019-02-21T01:43:30.830Z,9.76
2019-02-21T01:44:30.848Z,9.76
2019-02-21T01:45:30.870Z,9.82
2019-02-21T01:46:30.639Z,9.76
2019-02-21T01:47:30.906Z,9.84
2019-02-21T01:48:32.131Z,9.72
2019-02-21T01:49:30.942Z,9.77
2019-02-21T01:50:31.563Z,9.8
2019-02-21T01:51:30.980Z,9.82
2019-02-21T01:52:30.998Z,9.83
2019-02-21T01:53:30.762Z,9.82
2019-02-21T01:54:31.036Z,9.79
2019-02-21T01:55:31.308Z,9.77
2019-02-21T01:56:31.101Z,9.72
2019-02-21T01:57:30.833Z,9.76
2019-02-21T01:58:30.847Z,9.79
2019-02-21T01:59:31.179Z,9.77
2019-02-21T02:00:31.401Z,9.73
2019-02-21T02:01:31.171Z,9.69
2019-02-21T02:02:30.923Z,9.69
2019-02-21T02:03:31.200Z,9.76
2019-02-21T02:04:31.216Z,9.74
2019-02-21T02:05:31.235Z,9.76
2019-02-21T02:06:31.260Z,9.68
2019-02-21T02:07:31.271Z,9.83
2019-02-21T02:08:31.292Z,9.66
2019-02-21T02:09:31.592Z,9.69
2019-02-21T02:10:31.073Z,9.68
2019-02-21T02:11:31.344Z,9.69
2019-02-21T02:12:31.368Z,9.72
2019-02-21T02:13:31.387Z,9.72
2019-02-21T02:14:31.664Z,9.69
2019-02-21T02:15:31.511Z,9.68
2019-02-21T02:16:31.442Z,9.68
2019-02-21T02:17:31.199Z,9.77
2019-02-21T02:18:31.742Z,9.72
2019-02-21T02:19:31.751Z,9.74
2019-02-21T02:20:31.268Z,9.79
2019-02-21T02:21:31.314Z,9.69
2019-02-21T02:22:31.550Z,9.69
2019-02-21T02:23:31.568Z,9.72
2019-02-21T02:24:31.589Z,9.69
2019-02-21T02:25:31.607Z,9.76
2019-02-21T02:26:31.626Z,9.72
2019-02-21T02:27:31.901Z,9.76
2019-02-21T02:28:31.660Z,9.66
2019-02-21T02:29:31.689Z,9.76
2019-02-21T02:30:31.826Z,9.68
2019-02-21T02:31:31.463Z,9.74
2019-02-21T02:32:31.496Z,9.72
2019-02-21T02:33:31.771Z,9.77
2019-02-21T02:34:31.521Z,9.65
2019-02-21T02:35:31.563Z,9.72
2019-02-21T02:36:32.068Z,9.69
2019-02-21T02:37:31.575Z,9.65
2019-02-21T02:38:31.589Z,9.62
2019-02-21T02:39:31.884Z,9.72
2019-02-21T02:40:32.142Z,9.69
2019-02-21T02:41:32.155Z,9.69
2019-02-21T02:42:31.939Z,9.72
2019-02-21T02:43:31.755Z,9.68
2019-02-21T02:44:31.708Z,9.68
2019-02-21T02:45:32.249Z,9.69
2019-02-21T02:46:32.250Z,9.72
2019-02-21T02:47:32.044Z,9.68
2019-02-21T02:48:32.033Z,9.74
2019-02-21T02:49:31.796Z,9.77
2019-02-21T02:50:31.817Z,9.66
2019-02-21T02:51:32.089Z,9.73
2019-02-21T02:52:32.369Z,9.69
2019-02-21T02:53:32.131Z,9.72
2019-02-21T02:54:32.141Z,9.77
2019-02-21T02:55:32.174Z,9.69
2019-02-21T02:56:32.177Z,9.68
2019-02-21T02:57:32.198Z,9.68
2019-02-21T02:58:31.959Z,9.72
2019-02-21T02:59:44.697Z,9.65
2019-02-21T03:00:32.510Z,9.69
2019-02-21T03:01:39.414Z,9.68
2019-02-21T03:02:32.061Z,9.73
2019-02-21T03:03:32.304Z,9.69
2019-02-21T03:04:32.839Z,9.73
2019-02-21T03:05:32.344Z,9.73
2019-02-21T03:06:32.365Z,9.73
2019-02-21T03:07:32.116Z,9.69
2019-02-21T03:08:32.142Z,9.64
2019-02-21T03:09:32.419Z,9.73
2019-02-21T03:10:32.706Z,9.73
2019-02-21T03:11:32.461Z,9.73
2019-02-21T03:12:32.336Z,9.72
2019-02-21T03:13:32.269Z,9.68
2019-02-21T03:14:32.516Z,9.72
2019-02-21T03:15:32.274Z,9.72
2019-02-21T03:16:32.809Z,9.69
2019-02-21T03:17:32.828Z,9.69
2019-02-21T03:18:32.333Z,9.68
2019-02-21T03:19:32.341Z,9.68
2019-02-21T03:20:32.618Z,9.64
2019-02-21T03:21:32.380Z,9.68
2019-02-21T03:22:32.659Z,9.69
2019-02-21T03:23:32.974Z,9.68
2019-02-21T03:24:32.949Z,9.68
2019-02-21T03:25:32.971Z,9.68
2019-02-21T03:26:32.476Z,9.69
2019-02-21T03:27:32.746Z,9.73
2019-02-21T03:28:32.510Z,9.74
2019-02-21T03:29:32.786Z,9.68
2019-02-21T03:30:32.558Z,9.68
2019-02-21T03:31:32.598Z,9.65
2019-02-21T03:32:33.363Z,9.76
2019-02-21T03:33:32.899Z,9.72
2019-02-21T03:34:33.145Z,9.66
2019-02-21T03:35:33.212Z,9.68
2019-02-21T03:36:32.951Z,9.73
2019-02-21T03:37:33.213Z,9.72
2019-02-21T03:38:37.441Z,9.64
2019-02-21T03:39:33.220Z,9.74
2019-02-21T03:40:33.014Z,9.65
2019-02-21T03:41:32.761Z,9.69
2019-02-21T03:42:32.773Z,9.66
2019-02-21T03:43:33.124Z,9.74
2019-02-21T03:44:33.082Z,9.68
2019-02-21T03:45:33.088Z,9.65
2019-02-21T03:46:33.104Z,9.61
2019-02-21T03:47:32.869Z,9.65
2019-02-21T03:48:33.140Z,9.72
2019-02-21T03:49:33.014Z,9.69
2019-02-21T03:50:33.174Z,9.66
2019-02-21T03:51:33.453Z,9.69
2019-02-21T03:52:32.951Z,9.68
2019-02-21T03:53:33.273Z,9.61
2019-02-21T03:54:33.000Z,9.62
2019-02-21T03:55:33.265Z,9.69
2019-02-21T03:56:33.042Z,9.66
2019-02-21T03:57:33.304Z,9.66
2019-02-21T03:58:33.322Z,9.64
2019-02-21T03:59:33.611Z,9.61
2019-02-21T04:00:33.100Z,9.65
2019-02-21T04:01:33.643Z,9.62
2019-02-21T04:02:33.145Z,9.61
2019-02-21T04:03:33.409Z,9.69
2019-02-21T04:04:33.430Z,9.73
2019-02-21T04:05:33.264Z,9.56
2019-02-21T04:06:33.218Z,9.61
2019-02-21T04:07:33.489Z,9.58
2019-02-21T04:08:33.514Z,9.68
2019-02-21T04:09:33.527Z,9.61
2019-02-21T04:10:33.796Z,9.5
2019-02-21T04:11:33.841Z,9.64
2019-02-21T04:12:33.841Z,9.62
2019-02-21T04:13:33.859Z,9.61
2019-02-21T04:14:33.618Z,9.61
2019-02-21T04:15:33.898Z,9.55
2019-02-21T04:16:33.907Z,9.64
2019-02-21T04:17:33.667Z,9.55
2019-02-21T04:18:33.687Z,9.65
2019-02-21T04:19:33.968Z,9.58
2019-02-21T04:20:33.723Z,9.54
2019-02-21T04:21:33.747Z,9.56
2019-02-21T04:22:33.830Z,9.62
2019-02-21T04:23:33.773Z,9.56
2019-02-21T04:24:34.054Z,9.54
2019-02-21T04:25:33.822Z,9.56
2019-02-21T04:26:34.095Z,9.56
2019-02-21T04:27:33.858Z,9.51
2019-02-21T04:28:33.867Z,9.55
2019-02-21T04:29:34.142Z,9.59
2019-02-21T04:30:33.654Z,9.62
2019-02-21T04:31:34.205Z,9.56
2019-02-21T04:32:33.948Z,9.55
2019-02-21T04:33:36.836Z,9.59
2019-02-21T04:34:33.982Z,9.56
2019-02-21T04:35:34.269Z,9.51
2019-02-21T04:36:34.043Z,9.5
2019-02-21T04:37:34.292Z,9.55
2019-02-21T04:38:34.365Z,9.58
2019-02-21T04:39:33.838Z,9.58
2019-02-21T04:40:34.120Z,9.54
2019-02-21T04:41:34.111Z,9.54
2019-02-21T04:42:34.384Z,9.5
2019-02-21T04:43:34.147Z,9.56
2019-02-21T04:44:34.193Z,9.56
2019-02-21T04:45:34.182Z,9.58
2019-02-21T04:46:34.211Z,9.5
2019-02-21T04:47:34.214Z,9.54
2019-02-21T04:48:34.043Z,9.59
2019-02-21T04:49:34.259Z,9.51
2019-02-21T04:50:34.010Z,9.5
2019-02-21T04:51:34.300Z,9.5
2019-02-21T04:52:34.323Z,9.51
2019-02-21T04:53:34.333Z,9.47
2019-02-21T04:54:34.101Z,9.51
2019-02-21T04:55:34.373Z,9.48
2019-02-21T04:56:34.376Z,9.54
2019-02-21T04:57:34.412Z,9.58
2019-02-21T04:58:34.427Z,9.5
2019-02-21T04:59:34.470Z,9.55
2019-02-21T05:00:34.195Z,9.54
2019-02-21T05:01:34.476Z,9.58
2019-02-21T05:02:34.524Z,9.47
2019-02-21T05:03:34.615Z,9.5
2019-02-21T05:04:34.801Z,9.51
2019-02-21T05:05:34.802Z,9.54
2019-02-21T05:06:34.577Z,9.5
2019-02-21T05:07:34.839Z,9.48
2019-02-21T05:08:34.853Z,9.47
2019-02-21T05:09:34.868Z,9.47
2019-02-21T05:10:34.769Z,9.48
2019-02-21T05:11:34.398Z,9.55
2019-02-21T05:12:34.688Z,9.44
2019-02-21T05:13:36.434Z,9.47
2019-02-21T05:14:34.718Z,9.46
2019-02-21T05:15:34.982Z,9.55
2019-02-21T05:16:35.001Z,9.47
2019-02-21T05:17:34.764Z,9.48
2019-02-21T05:18:34.783Z,9.48
2019-02-21T05:19:34.799Z,9.41
2019-02-21T05:20:35.166Z,9.47
2019-02-21T05:21:34.599Z,9.47
2019-02-21T05:22:34.852Z,9.5
2019-02-21T05:23:36.733Z,9.48
2019-02-21T05:24:34.893Z,9.48
2019-02-21T05:25:34.903Z,9.54
2019-02-21T05:26:34.934Z,9.48
2019-02-21T05:27:35.324Z,9.44
2019-02-21T05:28:34.992Z,9.48
2019-02-21T05:29:34.992Z,9.41
2019-02-21T05:30:36.320Z,9.37
2019-02-21T05:31:35.026Z,9.34
2019-02-21T05:32:44.913Z,9.41
2019-02-21T05:33:34.805Z,9.44
2019-02-21T05:34:34.820Z,9.39
2019-02-21T05:35:35.756Z,9.41
2019-02-21T05:36:34.849Z,9.44
2019-02-21T05:37:34.870Z,9.44
2019-02-21T05:38:35.146Z,9.48
2019-02-21T05:39:35.191Z,9.46
2019-02-21T05:40:35.444Z,9.43
2019-02-21T05:41:35.466Z,9.46
2019-02-21T05:42:35.233Z,9.43
2019-02-21T05:43:39.390Z,9.4
2019-02-21T05:44:38.404Z,9.41
2019-02-21T05:45:35.376Z,9.36
2019-02-21T05:46:35.041Z,9.43
2019-02-21T05:47:35.050Z,9.4
2019-02-21T05:48:35.090Z,9.34
2019-02-21T05:49:35.091Z,9.4
2019-02-21T05:50:35.391Z,9.46
2019-02-21T05:51:35.125Z,9.47
2019-02-21T05:52:35.143Z,9.46
2019-02-21T05:53:35.168Z,9.4
2019-02-21T05:54:35.444Z,9.48
2019-02-21T05:55:35.205Z,9.4
2019-02-21T05:56:35.216Z,9.4
2019-02-21T05:57:35.498Z,9.4
2019-02-21T05:58:35.511Z,9.4
2019-02-21T05:59:35.280Z,9.37
2019-02-21T06:00:36.872Z,9.37
2019-02-21T06:01:35.850Z,9.46
2019-02-21T06:02:35.584Z,9.46
2019-02-21T06:03:38.236Z,9.46
2019-02-21T06:04:35.625Z,9.44
2019-02-21T06:05:35.639Z,9.43
2019-02-21T06:06:35.662Z,9.36
2019-02-21T06:07:35.932Z,9.4
2019-02-21T06:08:35.951Z,9.36
2019-02-21T06:09:35.713Z,9.44
2019-02-21T06:10:35.735Z,9.41
2019-02-21T06:11:37.627Z,9.36
2019-02-21T06:12:38.366Z,9.46
2019-02-21T06:13:35.529Z,9.5
2019-02-21T06:14:35.591Z,9.4
2019-02-21T06:15:35.832Z,9.43
2019-02-21T06:16:37.748Z,9.37
2019-02-21T06:17:36.520Z,9.41
2019-02-21T06:18:35.879Z,9.43
2019-02-21T06:19:35.901Z,9.37
2019-02-21T06:20:38.287Z,9.44
2019-02-21T06:21:35.688Z,9.41
2019-02-21T06:22:35.689Z,9.39
2019-02-21T06:23:35.709Z,9.39
2019-02-21T06:24:35.987Z,9.36
2019-02-21T06:25:35.762Z,9.43
2019-02-21T06:26:36.037Z,9.41
2019-02-21T06:27:38.014Z,9.39
2019-02-21T06:28:36.070Z,9.37
2019-02-21T06:29:38.872Z,9.51
2019-02-21T06:30:36.356Z,9.41
2019-02-21T06:31:36.386Z,9.43
2019-02-21T06:32:35.874Z,9.37
2019-02-21T06:33:35.901Z,9.48
2019-02-21T06:34:36.179Z,9.41
2019-02-21T06:35:36.202Z,9.46
2019-02-21T06:36:35.962Z,9.44
2019-02-21T06:37:37.829Z,9.5
2019-02-21T06:38:38.423Z,9.4
2019-02-21T06:39:36.541Z,9.37
2019-02-21T06:40:38.762Z,9.46
2019-02-21T06:41:36.324Z,9.37
2019-02-21T06:42:36.320Z,9.37
2019-02-21T06:43:36.338Z,9.44
2019-02-21T06:44:37.960Z,9.37
2019-02-21T06:45:36.379Z,9.37
2019-02-21T06:46:36.400Z,9.32
2019-02-21T06:47:36.186Z,9.41
2019-02-21T06:48:39.768Z,9.36
2019-02-21T06:49:37.603Z,9.37
2019-02-21T06:50:36.721Z,9.34
2019-02-21T06:51:36.481Z,9.34
2019-02-21T06:52:36.501Z,9.4
2019-02-21T06:53:36.522Z,9.37
2019-02-21T06:54:36.277Z,9.41
2019-02-21T06:55:36.556Z,9.41
2019-02-21T06:56:36.834Z,9.46
2019-02-21T06:57:36.588Z,9.4
2019-02-21T06:58:36.616Z,9.44
2019-02-21T06:59:47.754Z,9.41
2019-02-21T07:00:36.389Z,9.43
2019-02-21T07:01:36.677Z,9.43
2019-02-21T07:02:36.426Z,9.37
2019-02-21T07:03:36.766Z,9.47
2019-02-21T07:04:38.047Z,9.39
2019-02-21T07:05:39.191Z,9.39
2019-02-21T07:06:39.135Z,9.43
2019-02-21T07:07:36.796Z,9.41
2019-02-21T07:08:36.795Z,9.5
2019-02-21T07:09:36.813Z,9.44
2019-02-21T07:10:37.093Z,9.47
2019-02-21T07:11:36.611Z,9.4
2019-02-21T07:12:36.611Z,9.44
2019-02-21T07:13:36.674Z,9.48
2019-02-21T07:14:39.116Z,9.54
2019-02-21T07:15:37.183Z,9.51
2019-02-21T07:16:37.418Z,9.47
2019-02-21T07:17:36.702Z,9.44
2019-02-21T07:18:36.979Z,9.56
2019-02-21T07:19:37.000Z,9.47
2019-02-21T07:20:36.822Z,9.34
2019-02-21T07:21:38.875Z,9.48
2019-02-21T07:22:37.312Z,9.46
2019-02-21T07:23:47.678Z,9.48
2019-02-21T07:24:38.468Z,9.54
2019-02-21T07:25:37.579Z,9.46
2019-02-21T07:26:37.390Z,9.51
2019-02-21T07:27:36.906Z,9.55
2019-02-21T07:28:37.174Z,9.5
2019-02-21T07:29:38.770Z,9.55
2019-02-21T07:30:37.466Z,9.54
2019-02-21T07:31:37.666Z,9.51
2019-02-21T07:32:37.496Z,9.54
2019-02-21T07:33:37.260Z,9.59
2019-02-21T07:34:37.040Z,9.5
2019-02-21T07:35:37.309Z,9.51
2019-02-21T07:36:37.318Z,9.58
2019-02-21T07:37:37.594Z,9.58
2019-02-21T07:38:37.383Z,9.55
2019-02-21T07:39:40.713Z,9.54
2019-02-21T07:40:37.140Z,9.55
2019-02-21T07:41:37.144Z,9.56
2019-02-21T07:42:37.424Z,9.56
2019-02-21T07:43:37.460Z,9.55
2019-02-21T07:44:37.720Z,9.55
2019-02-21T07:45:38.854Z,9.65
2019-02-21T07:46:37.243Z,9.65
2019-02-21T07:47:37.781Z,9.64
2019-02-21T07:48:38.978Z,9.64
2019-02-21T07:49:37.365Z,9.64
2019-02-21T07:50:37.835Z,9.68
2019-02-21T07:51:38.290Z,9.65
2019-02-21T07:52:37.353Z,9.69
2019-02-21T07:53:37.629Z,9.65
2019-02-21T07:54:37.395Z,9.73
2019-02-21T07:55:37.408Z,9.69
2019-02-21T07:56:46.626Z,9.68
2019-02-21T07:57:37.702Z,9.68
2019-02-21T07:58:39.526Z,9.74
2019-02-21T07:59:37.999Z,9.76
2019-02-21T08:00:37.506Z,9.66
2019-02-21T08:01:37.522Z,9.82
2019-02-21T08:02:37.802Z,9.82
2019-02-21T08:03:51.008Z,9.73
2019-02-21T08:04:39.329Z,9.76
2019-02-21T08:05:37.851Z,9.76
2019-02-21T08:06:37.616Z,9.89
2019-02-21T08:07:37.917Z,9.83
2019-02-21T08:08:37.934Z,9.86
2019-02-21T08:09:38.183Z,9.92
2019-02-21T08:10:38.698Z,9.94
2019-02-21T08:11:37.707Z,9.94
2019-02-21T08:12:40.351Z,9.99
2019-02-21T08:13:38.288Z,10.04
2019-02-21T08:14:38.029Z,10.1
2019-02-21T08:15:38.306Z,10.07
2019-02-21T08:16:38.067Z,10.1
2019-02-21T08:17:38.338Z,10.01
2019-02-21T08:18:38.356Z,10.09
2019-02-21T08:19:37.866Z,10.05
2019-02-21T08:20:44.905Z,10.15
2019-02-21T08:21:38.131Z,10.13
2019-02-21T08:22:38.173Z,10.15
2019-02-21T08:23:37.946Z,10.15
2019-02-21T08:24:38.271Z,10.17
2019-02-21T08:25:37.974Z,10.15
2019-02-21T08:26:38.247Z,10.16
2019-02-21T08:27:42.274Z,10.16
2019-02-21T08:28:38.286Z,10.15
2019-02-21T08:29:38.043Z,10.17
2019-02-21T08:30:38.327Z,10.19
2019-02-21T08:31:38.602Z,10.19
2019-02-21T08:32:38.355Z,10.15
2019-02-21T08:33:38.123Z,10.22
2019-02-21T08:34:38.134Z,10.19
2019-02-21T08:35:38.682Z,10.2
2019-02-21T08:36:38.187Z,10.19
2019-02-21T08:37:40.649Z,10.13
2019-02-21T08:38:38.215Z,10.12
2019-02-21T08:39:38.490Z,10.25
2019-02-21T08:40:38.248Z,10.23
2019-02-21T08:41:38.526Z,10.15
2019-02-21T08:42:38.551Z,10.13
2019-02-21T08:43:39.817Z,10.16
2019-02-21T08:44:38.332Z,10.09
2019-02-21T08:45:38.608Z,10.16
2019-02-21T08:46:38.618Z,10.15
2019-02-21T08:47:38.381Z,10.15
2019-02-21T08:48:40.470Z,10.12
2019-02-21T08:49:38.422Z,10.15
2019-02-21T08:50:38.440Z,10.12
2019-02-21T08:51:38.719Z,10.05
2019-02-21T08:52:38.735Z,10.09
2019-02-21T08:53:38.491Z,10.07
2019-02-21T08:54:39.031Z,10.13
2019-02-21T08:55:40.346Z,10.16
2019-02-21T08:56:38.804Z,10.17
2019-02-21T08:57:38.566Z,10.09
2019-02-21T08:58:38.584Z,10.05
2019-02-21T08:59:38.888Z,10.13
2019-02-21T09:00:38.630Z,10.09
2019-02-21T09:01:38.901Z,10.17
2019-02-21T09:02:40.689Z,10.07
2019-02-21T09:03:39.199Z,10.07
2019-02-21T09:04:38.691Z,10.17
2019-02-21T09:05:38.973Z,10.16
2019-02-21T09:06:38.992Z,10.16
2019-02-21T09:07:39.014Z,10.13
2019-02-21T09:08:41.785Z,10.23
2019-02-21T09:09:39.049Z,10.26
2019-02-21T09:10:39.071Z,10.3
2019-02-21T09:11:38.913Z,10.34
2019-02-21T09:12:38.843Z,10.26
2019-02-21T09:13:41.433Z,10.37
2019-02-21T09:14:38.886Z,10.31
2019-02-21T09:15:39.163Z,10.35
2019-02-21T09:16:39.440Z,10.41
2019-02-21T09:17:38.935Z,10.4
2019-02-21T09:18:38.960Z,10.38
2019-02-21T09:19:41.184Z,10.38
2019-02-21T09:20:39.270Z,10.44
2019-02-21T09:21:39.018Z,10.48
2019-02-21T09:22:39.574Z,10.51
2019-02-21T09:23:39.565Z,10.48
2019-02-21T09:24:45.576Z,10.54
2019-02-21T09:25:39.358Z,10.44
2019-02-21T09:26:39.147Z,10.54
2019-02-21T09:27:39.384Z,10.63
2019-02-21T09:28:39.299Z,10.63
2019-02-21T09:29:39.423Z,10.57
2019-02-21T09:30:39.444Z,10.59
2019-02-21T09:31:39.200Z,10.69
2019-02-21T09:32:41.807Z,10.63
2019-02-21T09:33:43.703Z,10.64
2019-02-21T09:34:39.787Z,10.63
2019-02-21T09:35:39.275Z,10.63
2019-02-21T09:36:39.552Z,10.54
2019-02-21T09:37:39.835Z,10.74
2019-02-21T09:38:39.338Z,10.57
2019-02-21T09:39:39.359Z,10.59
2019-02-21T09:40:39.638Z,10.64
2019-02-21T09:41:39.654Z,10.72
2019-02-21T09:42:39.669Z,10.63
2019-02-21T09:43:39.440Z,10.61
2019-02-21T09:44:40.793Z,10.68
2019-02-21T09:45:42.062Z,10.59
2019-02-21T09:46:40.641Z,10.64
2019-02-21T09:47:39.766Z,10.69
2019-02-21T09:48:40.044Z,10.69
2019-02-21T09:49:39.542Z,10.59
2019-02-21T09:50:40.079Z,10.64
2019-02-21T09:51:41.256Z,10.67
2019-02-21T09:52:39.856Z,10.6
2019-02-21T09:53:40.242Z,10.68
2019-02-21T09:54:39.899Z,10.71
2019-02-21T09:55:39.659Z,10.63
2019-02-21T09:56:40.240Z,10.61
2019-02-21T09:57:39.704Z,10.64
2019-02-21T09:58:39.732Z,10.63
2019-02-21T09:59:40.251Z,10.72
2019-02-21T10:00:40.931Z,10.61
2019-02-21T10:01:39.770Z,10.68
2019-02-21T10:02:42.007Z,10.63
2019-02-21T10:03:40.069Z,10.68
2019-02-21T10:04:39.870Z,10.71
2019-02-21T10:05:39.847Z,10.76
2019-02-21T10:06:40.395Z,10.74
2019-02-21T10:07:41.516Z,10.76
2019-02-21T10:08:40.212Z,10.84
2019-02-21T10:09:39.920Z,10.82
2019-02-21T10:10:40.200Z,10.89
2019-02-21T10:11:39.960Z,10.84
2019-02-21T10:12:40.498Z,10.79
2019-02-21T10:13:39.998Z,10.81
2019-02-21T10:14:40.272Z,10.82
2019-02-21T10:15:40.294Z,10.9
2019-02-21T10:16:40.574Z,10.94
2019-02-21T10:17:40.619Z,10.92
2019-02-21T10:18:40.615Z,11.05
2019-02-21T10:19:40.120Z,10.97
2019-02-21T10:20:40.408Z,10.96
2019-02-21T10:21:40.147Z,10.94
2019-02-21T10:22:40.429Z,10.93
2019-02-21T10:23:42.136Z,11
2019-02-21T10:24:40.468Z,10.97
2019-02-21T10:25:40.485Z,11.05
2019-02-21T10:26:40.506Z,11
2019-02-21T10:27:40.287Z,11
2019-02-21T10:28:40.291Z,10.94
2019-02-21T10:29:40.311Z,11.05
2019-02-21T10:30:41.084Z,11.04
2019-02-21T10:31:40.347Z,11.02
2019-02-21T10:32:40.619Z,10.93
2019-02-21T10:33:50.825Z,10.96
2019-02-21T10:34:47.330Z,11
2019-02-21T10:35:40.679Z,10.99
2019-02-21T10:36:40.695Z,11.07
2019-02-21T10:37:40.717Z,10.96
2019-02-21T10:38:40.735Z,11.05
2019-02-21T10:39:40.804Z,10.97
2019-02-21T10:40:40.772Z,10.99
2019-02-21T10:41:40.539Z,11.02
2019-02-21T10:42:40.808Z,10.99
2019-02-21T10:43:40.575Z,10.99
2019-02-21T10:44:40.850Z,11.02
2019-02-21T10:45:52.264Z,10.96
2019-02-21T10:46:40.910Z,10.99
2019-02-21T10:47:40.907Z,10.97
2019-02-21T10:48:40.925Z,11.02
2019-02-21T10:49:40.946Z,10.96
2019-02-21T10:50:40.959Z,10.96
2019-02-21T10:51:40.988Z,11.02
2019-02-21T10:52:44.057Z,11.02
2019-02-21T10:53:41.021Z,10.99
2019-02-21T10:54:41.297Z,11
2019-02-21T10:55:40.800Z,10.99
2019-02-21T10:56:41.082Z,11.07
2019-02-21T10:57:41.373Z,11.04
2019-02-21T10:58:41.374Z,11.04
2019-02-21T10:59:51.267Z,11.02
2019-02-21T11:00:41.435Z,10.93
2019-02-21T11:01:41.433Z,10.97
2019-02-21T11:02:41.448Z,10.99
2019-02-21T11:03:40.962Z,10.99
2019-02-21T11:04:42.165Z,10.97
2019-02-21T11:05:40.992Z,11.02
2019-02-21T11:06:41.272Z,10.99
2019-02-21T11:07:41.037Z,10.97
2019-02-21T11:08:41.569Z,10.96
2019-02-21T11:09:41.335Z,11.02
2019-02-21T11:10:41.347Z,11.02
2019-02-21T11:11:41.364Z,11.02
2019-02-21T11:12:41.391Z,11
2019-02-21T11:13:41.411Z,11.1
2019-02-21T11:14:52.067Z,11.05
2019-02-21T11:15:44.550Z,11.14
2019-02-21T11:16:41.462Z,11.12
2019-02-21T11:17:41.737Z,11.1
2019-02-21T11:18:41.506Z,11.12
2019-02-21T11:19:41.524Z,11.19
2019-02-21T11:20:41.801Z,11.19
2019-02-21T11:21:41.569Z,11.25
2019-02-21T11:22:41.321Z,11.17
2019-02-21T11:23:41.604Z,11.25
2019-02-21T11:24:41.615Z,11.29
2019-02-21T11:25:41.639Z,11.33
2019-02-21T11:26:41.914Z,11.32
2019-02-21T11:27:41.932Z,11.32
2019-02-21T11:28:41.545Z,11.35
2019-02-21T11:29:41.495Z,11.32
2019-02-21T11:30:41.483Z,11.35
2019-02-21T11:31:41.754Z,11.29
2019-02-21T11:32:41.776Z,11.35
2019-02-21T11:33:42.075Z,11.35
2019-02-21T11:34:42.558Z,11.36
2019-02-21T11:35:42.095Z,11.41
2019-02-21T11:36:41.853Z,11.33
2019-02-21T11:37:49.812Z,11.32
2019-02-21T11:38:42.145Z,11.41
2019-02-21T11:39:41.727Z,11.33
2019-02-21T11:40:41.949Z,11.43
2019-02-21T11:41:42.043Z,11.33
2019-02-21T11:42:41.970Z,11.45
2019-02-21T11:43:42.256Z,11.43
2019-02-21T11:44:42.265Z,11.36
2019-02-21T11:45:53.128Z,11.45
2019-02-21T11:46:41.786Z,11.41
2019-02-21T11:47:42.339Z,11.5
2019-02-21T11:48:42.084Z,11.4
2019-02-21T11:49:42.465Z,11.36
2019-02-21T11:50:41.862Z,11.45
2019-02-21T11:51:42.402Z,11.36
2019-02-21T11:52:42.164Z,11.37
2019-02-21T11:53:42.611Z,11.47
2019-02-21T11:54:41.948Z,11.5
2019-02-21T11:55:41.972Z,11.5
2019-02-21T11:56:42.244Z,11.45
2019-02-21T11:57:42.003Z,11.55
2019-02-21T11:58:42.022Z,11.52
2019-02-21T11:59:42.045Z,11.55
2019-02-21T12:00:42.644Z,11.48
2019-02-21T12:01:44.615Z,11.5
2019-02-21T12:02:43.707Z,11.59
2019-02-21T12:03:42.396Z,11.55
2019-02-21T12:04:42.399Z,11.59
2019-02-21T12:05:42.159Z,11.59
2019-02-21T12:06:42.688Z,11.52
2019-02-21T12:07:42.482Z,11.52
2019-02-21T12:08:42.213Z,11.65
2019-02-21T12:09:42.491Z,11.6
2019-02-21T12:10:42.255Z,11.59
2019-02-21T12:11:42.631Z,11.51
2019-02-21T12:12:42.549Z,11.6
2019-02-21T12:13:42.693Z,11.65
2019-02-21T12:14:42.596Z,11.66
2019-02-21T12:15:42.610Z,11.7
2019-02-21T12:16:42.371Z,11.65
2019-02-21T12:17:45.222Z,11.69
2019-02-21T12:18:42.407Z,11.73
2019-02-21T12:19:42.436Z,11.66
2019-02-21T12:20:42.711Z,11.65
2019-02-21T12:21:42.729Z,11.72
2019-02-21T12:22:42.754Z,11.7
2019-02-21T12:23:42.766Z,11.73
2019-02-21T12:24:42.790Z,11.77
2019-02-21T12:25:42.804Z,11.75
2019-02-21T12:26:42.827Z,11.72
2019-02-21T12:27:42.586Z,11.75
2019-02-21T12:28:42.864Z,11.77
2019-02-21T12:29:42.624Z,11.77
2019-02-21T12:30:42.903Z,11.77
2019-02-21T12:31:43.184Z,11.8
2019-02-21T12:32:43.208Z,11.81
2019-02-21T12:33:42.702Z,11.8
2019-02-21T12:34:42.732Z,11.86
2019-02-21T12:35:42.748Z,11.9
2019-02-21T12:36:43.037Z,11.81
2019-02-21T12:37:43.062Z,11.83
2019-02-21T12:38:43.322Z,11.86
2019-02-21T12:39:43.095Z,11.77
2019-02-21T12:40:43.101Z,11.86
2019-02-21T12:41:43.123Z,11.88
2019-02-21T12:42:43.139Z,11.94
2019-02-21T12:43:42.901Z,11.81
2019-02-21T12:44:42.921Z,11.86
2019-02-21T12:45:43.209Z,11.83
2019-02-21T12:46:45.543Z,11.77
2019-02-21T12:47:56.212Z,11.88
2019-02-21T12:48:43.514Z,11.81
2019-02-21T12:49:43.285Z,11.9
2019-02-21T12:50:49.377Z,11.87
2019-02-21T12:51:43.581Z,11.86
2019-02-21T12:52:43.086Z,11.84
2019-02-21T12:53:43.362Z,11.87
2019-02-21T12:54:43.380Z,11.97
2019-02-21T12:55:43.408Z,11.88
2019-02-21T12:56:43.412Z,11.94
2019-02-21T12:57:43.447Z,11.94
2019-02-21T12:58:45.229Z,11.87
2019-02-21T12:59:43.224Z,11.86
2019-02-21T13:00:43.501Z,11.88
2019-02-21T13:01:43.879Z,11.88
2019-02-21T13:02:43.279Z,11.88
2019-02-21T13:03:43.559Z,11.95
2019-02-21T13:04:43.319Z,11.95
2019-02-21T13:05:47.087Z,11.87
2019-02-21T13:06:43.620Z,11.97
2019-02-21T13:07:43.397Z,11.91
2019-02-21T13:08:43.920Z,11.88
2019-02-21T13:09:43.699Z,11.9
2019-02-21T13:10:43.703Z,11.95